sensor_id;sensor_type;location;lat;lon;timestamp;P1;durP1;ratioP1;P2;durP2;ratioP2
19951;SDS011;10137;49.406;19.484;2023-07-24T00:01:34;3.42;;;2.25;;
19951;SDS011;10137;49.406;19.484;2023-07-24T00:04:02;4.22;;;2.58;;
19951;SDS011;10137;49.406;19.484;2023-07-24T00:06:30;4.25;;;2.20;;
19951;SDS011;10137;49.406;19.484;2023-07-24T00:08:58;3.78;;;2.50;;
19951;SDS011;10137;49.406;19.484;2023-07-24T00:11:32;4.13;;;2.47;;
19951;SDS011;10137;49.406;19.484;2023-07-24T00:14:00;4.68;;;2.60;;
19951;SDS011;10137;49.406;19.484;2023-07-24T00:16:28;5.28;;;2.63;;
19951;SDS011;10137;49.406;19.484;2023-07-24T00:18:56;6.30;;;2.42;;
19951;SDS011;10137;49.406;19.484;2023-07-24T00:21:25;4.35;;;2.65;;
19951;SDS011;10137;49.406;19.484;2023-07-24T00:23:53;4.10;;;2.45;;
19951;SDS011;10137;49.406;19.484;2023-07-24T00:26:21;4.53;;;2.60;;
19951;SDS011;10137;49.406;19.484;2023-07-24T00:28:50;5.53;;;3.15;;
19951;SDS011;10137;49.406;19.484;2023-07-24T00:31:19;5.82;;;2.65;;
19951;SDS011;10137;49.406;19.484;2023-07-24T00:33:47;7.13;;;2.80;;
19951;SDS011;10137;49.406;19.484;2023-07-24T00:36:15;9.20;;;2.90;;
19951;SDS011;10137;49.406;19.484;2023-07-24T00:38:43;5.30;;;2.83;;
19951;SDS011;10137;49.406;19.484;2023-07-24T00:41:15;5.35;;;2.45;;
19951;SDS011;10137;49.406;19.484;2023-07-24T00:43:43;7.28;;;2.60;;
19951;SDS011;10137;49.406;19.484;2023-07-24T00:46:13;5.38;;;2.45;;
19951;SDS011;10137;49.406;19.484;2023-07-24T00:48:42;5.05;;;2.50;;
19951;SDS011;10137;49.406;19.484;2023-07-24T00:51:10;4.05;;;2.47;;
19951;SDS011;10137;49.406;19.484;2023-07-24T00:53:39;7.57;;;2.90;;
19951;SDS011;10137;49.406;19.484;2023-07-24T00:56:07;3.97;;;2.45;;
19951;SDS011;10137;49.406;19.484;2023-07-24T00:58:36;4.85;;;2.20;;
19951;SDS011;10137;49.406;19.484;2023-07-24T01:01:05;4.75;;;2.47;;
19951;SDS011;10137;49.406;19.484;2023-07-24T01:03:38;4.72;;;2.50;;
19951;SDS011;10137;49.406;19.484;2023-07-24T01:06:07;3.22;;;2.20;;
19951;SDS011;10137;49.406;19.484;2023-07-24T01:08:35;3.85;;;2.20;;
19951;SDS011;10137;49.406;19.484;2023-07-24T01:11:07;5.05;;;2.50;;
19951;SDS011;10137;49.406;19.484;2023-07-24T01:13:39;4.03;;;2.50;;
19951;SDS011;10137;49.406;19.484;2023-07-24T01:16:13;5.00;;;2.42;;
19951;SDS011;10137;49.406;19.484;2023-07-24T01:18:47;4.05;;;2.35;;
19951;SDS011;10137;49.406;19.484;2023-07-24T01:21:20;4.07;;;2.60;;
19951;SDS011;10137;49.406;19.484;2023-07-24T01:23:59;3.95;;;2.70;;
19951;SDS011;10137;49.406;19.484;2023-07-24T01:26:38;5.40;;;3.00;;
19951;SDS011;10137;49.406;19.484;2023-07-24T01:29:07;3.47;;;2.38;;
19951;SDS011;10137;49.406;19.484;2023-07-24T01:31:35;3.83;;;2.50;;
19951;SDS011;10137;49.406;19.484;2023-07-24T01:34:02;8.90;;;2.58;;
19951;SDS011;10137;49.406;19.484;2023-07-24T01:36:30;4.47;;;2.70;;
19951;SDS011;10137;49.406;19.484;2023-07-24T01:38:59;4.25;;;2.53;;
19951;SDS011;10137;49.406;19.484;2023-07-24T01:41:28;5.97;;;3.03;;
19951;SDS011;10137;49.406;19.484;2023-07-24T01:44:00;6.00;;;2.90;;
19951;SDS011;10137;49.406;19.484;2023-07-24T01:46:29;3.90;;;2.50;;
19951;SDS011;10137;49.406;19.484;2023-07-24T01:48:57;5.10;;;2.90;;
19951;SDS011;10137;49.406;19.484;2023-07-24T01:51:25;4.07;;;2.72;;
19951;SDS011;10137;49.406;19.484;2023-07-24T01:53:53;4.60;;;2.25;;
19951;SDS011;10137;49.406;19.484;2023-07-24T01:56:21;3.42;;;2.40;;
19951;SDS011;10137;49.406;19.484;2023-07-24T01:58:49;4.57;;;2.50;;
19951;SDS011;10137;49.406;19.484;2023-07-24T02:01:19;3.30;;;2.30;;
19951;SDS011;10137;49.406;19.484;2023-07-24T02:03:46;3.83;;;2.70;;
19951;SDS011;10137;49.406;19.484;2023-07-24T02:06:15;5.38;;;2.60;;
19951;SDS011;10137;49.406;19.484;2023-07-24T02:08:43;4.20;;;2.95;;
19951;SDS011;10137;49.406;19.484;2023-07-24T02:11:15;7.32;;;2.83;;
19951;SDS011;10137;49.406;19.484;2023-07-24T02:13:44;3.17;;;2.30;;
19951;SDS011;10137;49.406;19.484;2023-07-24T02:16:12;4.93;;;2.83;;
19951;SDS011;10137;49.406;19.484;2023-07-24T02:18:42;4.05;;;2.70;;
19951;SDS011;10137;49.406;19.484;2023-07-24T02:21:11;6.45;;;2.72;;
19951;SDS011;10137;49.406;19.484;2023-07-24T02:23:39;6.03;;;2.88;;
19951;SDS011;10137;49.406;19.484;2023-07-24T02:26:07;5.15;;;3.10;;
19951;SDS011;10137;49.406;19.484;2023-07-24T02:28:35;4.15;;;2.60;;
19951;SDS011;10137;49.406;19.484;2023-07-24T02:31:03;7.82;;;3.28;;
19951;SDS011;10137;49.406;19.484;2023-07-24T02:33:31;6.00;;;2.70;;
19951;SDS011;10137;49.406;19.484;2023-07-24T02:36:01;4.60;;;2.55;;
19951;SDS011;10137;49.406;19.484;2023-07-24T02:38:29;4.85;;;2.55;;
19951;SDS011;10137;49.406;19.484;2023-07-24T02:40:57;4.32;;;2.70;;
19951;SDS011;10137;49.406;19.484;2023-07-24T02:43:24;3.72;;;2.38;;
19951;SDS011;10137;49.406;19.484;2023-07-24T02:45:52;3.90;;;2.72;;
19951;SDS011;10137;49.406;19.484;2023-07-24T02:48:27;4.38;;;2.50;;
19951;SDS011;10137;49.406;19.484;2023-07-24T02:50:56;6.30;;;2.58;;
19951;SDS011;10137;49.406;19.484;2023-07-24T02:53:32;5.88;;;2.80;;
19951;SDS011;10137;49.406;19.484;2023-07-24T02:56:00;3.65;;;2.50;;
19951;SDS011;10137;49.406;19.484;2023-07-24T02:58:29;6.03;;;2.38;;
19951;SDS011;10137;49.406;19.484;2023-07-24T03:01:02;4.60;;;2.90;;
19951;SDS011;10137;49.406;19.484;2023-07-24T03:03:34;5.75;;;2.88;;
19951;SDS011;10137;49.406;19.484;2023-07-24T03:06:02;6.03;;;2.83;;
19951;SDS011;10137;49.406;19.484;2023-07-24T03:08:32;8.70;;;3.25;;
19951;SDS011;10137;49.406;19.484;2023-07-24T03:11:00;5.75;;;3.30;;
19951;SDS011;10137;49.406;19.484;2023-07-24T03:13:31;7.63;;;3.13;;
19951;SDS011;10137;49.406;19.484;2023-07-24T03:15:59;8.75;;;3.05;;
19951;SDS011;10137;49.406;19.484;2023-07-24T03:18:28;4.82;;;3.00;;
19951;SDS011;10137;49.406;19.484;2023-07-24T03:20:57;6.18;;;2.55;;
19951;SDS011;10137;49.406;19.484;2023-07-24T03:23:26;5.32;;;2.70;;
19951;SDS011;10137;49.406;19.484;2023-07-24T03:25:55;5.40;;;2.83;;
19951;SDS011;10137;49.406;19.484;2023-07-24T03:28:23;7.15;;;3.20;;
19951;SDS011;10137;49.406;19.484;2023-07-24T03:30:52;4.70;;;3.13;;
19951;SDS011;10137;49.406;19.484;2023-07-24T03:33:20;7.38;;;3.15;;
19951;SDS011;10137;49.406;19.484;2023-07-24T03:35:51;6.18;;;3.17;;
19951;SDS011;10137;49.406;19.484;2023-07-24T03:38:20;8.63;;;3.40;;
19951;SDS011;10137;49.406;19.484;2023-07-24T03:40:51;7.65;;;2.88;;
19951;SDS011;10137;49.406;19.484;2023-07-24T03:43:21;7.30;;;3.00;;
19951;SDS011;10137;49.406;19.484;2023-07-24T03:45:49;5.90;;;3.35;;
19951;SDS011;10137;49.406;19.484;2023-07-24T03:48:18;7.80;;;3.17;;
19951;SDS011;10137;49.406;19.484;2023-07-24T03:50:45;10.35;;;3.72;;
19951;SDS011;10137;49.406;19.484;2023-07-24T03:53:14;8.80;;;3.15;;
19951;SDS011;10137;49.406;19.484;2023-07-24T03:55:41;7.60;;;3.25;;
19951;SDS011;10137;49.406;19.484;2023-07-24T03:58:10;8.27;;;3.05;;
19951;SDS011;10137;49.406;19.484;2023-07-24T04:00:38;5.85;;;2.75;;
19951;SDS011;10137;49.406;19.484;2023-07-24T04:03:10;4.38;;;2.80;;
19951;SDS011;10137;49.406;19.484;2023-07-24T04:05:38;5.65;;;2.80;;
19951;SDS011;10137;49.406;19.484;2023-07-24T04:08:12;4.10;;;2.75;;
19951;SDS011;10137;49.406;19.484;2023-07-24T04:10:44;3.97;;;2.80;;
19951;SDS011;10137;49.406;19.484;2023-07-24T04:13:12;5.00;;;3.00;;
19951;SDS011;10137;49.406;19.484;2023-07-24T04:15:40;4.93;;;3.17;;
19951;SDS011;10137;49.406;19.484;2023-07-24T04:18:16;6.47;;;2.90;;
19951;SDS011;10137;49.406;19.484;2023-07-24T04:20:46;4.18;;;2.72;;
19951;SDS011;10137;49.406;19.484;2023-07-24T04:23:15;8.95;;;3.60;;
19951;SDS011;10137;49.406;19.484;2023-07-24T04:25:45;5.95;;;3.10;;
19951;SDS011;10137;49.406;19.484;2023-07-24T04:28:15;6.03;;;3.15;;
19951;SDS011;10137;49.406;19.484;2023-07-24T04:30:46;5.47;;;3.50;;
19951;SDS011;10137;49.406;19.484;2023-07-24T04:33:15;5.80;;;3.22;;
19951;SDS011;10137;49.406;19.484;2023-07-24T04:35:47;4.53;;;3.08;;
19951;SDS011;10137;49.406;19.484;2023-07-24T04:38:15;5.13;;;3.35;;
19951;SDS011;10137;49.406;19.484;2023-07-24T04:40:45;7.93;;;3.42;;
19951;SDS011;10137;49.406;19.484;2023-07-24T04:43:13;4.95;;;3.50;;
19951;SDS011;10137;49.406;19.484;2023-07-24T04:45:46;7.03;;;3.38;;
19951;SDS011;10137;49.406;19.484;2023-07-24T04:48:20;5.57;;;3.17;;
19951;SDS011;10137;49.406;19.484;2023-07-24T04:50:53;5.55;;;3.10;;
19951;SDS011;10137;49.406;19.484;2023-07-24T04:53:21;7.78;;;3.00;;
19951;SDS011;10137;49.406;19.484;2023-07-24T04:55:50;5.20;;;3.22;;
19951;SDS011;10137;49.406;19.484;2023-07-24T04:58:19;5.35;;;3.17;;
19951;SDS011;10137;49.406;19.484;2023-07-24T05:00:49;7.88;;;3.63;;
19951;SDS011;10137;49.406;19.484;2023-07-24T05:03:17;6.43;;;3.13;;
19951;SDS011;10137;49.406;19.484;2023-07-24T05:05:48;6.93;;;3.20;;
19951;SDS011;10137;49.406;19.484;2023-07-24T05:08:20;4.95;;;3.30;;
19951;SDS011;10137;49.406;19.484;2023-07-24T05:10:53;5.70;;;3.50;;
19951;SDS011;10137;49.406;19.484;2023-07-24T05:13:22;4.70;;;3.40;;
19951;SDS011;10137;49.406;19.484;2023-07-24T05:15:51;5.80;;;3.67;;
19951;SDS011;10137;49.406;19.484;2023-07-24T05:18:18;5.57;;;3.50;;
19951;SDS011;10137;49.406;19.484;2023-07-24T05:20:46;5.00;;;3.20;;
19951;SDS011;10137;49.406;19.484;2023-07-24T05:23:17;4.10;;;3.05;;
19951;SDS011;10137;49.406;19.484;2023-07-24T05:25:45;7.90;;;3.90;;
19951;SDS011;10137;49.406;19.484;2023-07-24T05:28:14;4.93;;;2.97;;
19951;SDS011;10137;49.406;19.484;2023-07-24T05:30:42;4.75;;;3.33;;
19951;SDS011;10137;49.406;19.484;2023-07-24T05:33:13;6.57;;;3.03;;
19951;SDS011;10137;49.406;19.484;2023-07-24T05:35:42;6.30;;;3.25;;
19951;SDS011;10137;49.406;19.484;2023-07-24T05:38:09;5.65;;;3.00;;
19951;SDS011;10137;49.406;19.484;2023-07-24T05:40:40;9.20;;;3.80;;
19951;SDS011;10137;49.406;19.484;2023-07-24T05:43:08;6.80;;;3.45;;
19951;SDS011;10137;49.406;19.484;2023-07-24T05:45:36;7.53;;;3.70;;
19951;SDS011;10137;49.406;19.484;2023-07-24T05:48:04;5.72;;;3.45;;
19951;SDS011;10137;49.406;19.484;2023-07-24T05:50:37;7.63;;;3.58;;
19951;SDS011;10137;49.406;19.484;2023-07-24T05:53:08;5.68;;;3.20;;
19951;SDS011;10137;49.406;19.484;2023-07-24T05:55:36;8.27;;;3.55;;
19951;SDS011;10137;49.406;19.484;2023-07-24T05:58:04;6.38;;;3.53;;
19951;SDS011;10137;49.406;19.484;2023-07-24T06:00:31;7.10;;;4.15;;
19951;SDS011;10137;49.406;19.484;2023-07-24T06:02:59;5.95;;;3.70;;
19951;SDS011;10137;49.406;19.484;2023-07-24T06:05:36;7.55;;;3.58;;
19951;SDS011;10137;49.406;19.484;2023-07-24T06:08:05;5.15;;;3.55;;
19951;SDS011;10137;49.406;19.484;2023-07-24T06:10:35;7.35;;;4.03;;
19951;SDS011;10137;49.406;19.484;2023-07-24T06:13:03;7.25;;;4.10;;
19951;SDS011;10137;49.406;19.484;2023-07-24T06:15:33;6.55;;;3.83;;
19951;SDS011;10137;49.406;19.484;2023-07-24T06:18:04;6.85;;;4.20;;
19951;SDS011;10137;49.406;19.484;2023-07-24T06:20:32;13.18;;;4.50;;
19951;SDS011;10137;49.406;19.484;2023-07-24T06:23:02;8.48;;;3.60;;
19951;SDS011;10137;49.406;19.484;2023-07-24T06:25:29;7.18;;;3.95;;
19951;SDS011;10137;49.406;19.484;2023-07-24T06:28:03;7.95;;;4.35;;
19951;SDS011;10137;49.406;19.484;2023-07-24T06:30:31;8.40;;;4.32;;
19951;SDS011;10137;49.406;19.484;2023-07-24T06:33:00;8.02;;;4.53;;
19951;SDS011;10137;49.406;19.484;2023-07-24T06:35:28;8.82;;;3.58;;
19951;SDS011;10137;49.406;19.484;2023-07-24T06:37:58;7.00;;;3.75;;
19951;SDS011;10137;49.406;19.484;2023-07-24T06:40:28;8.90;;;4.25;;
19951;SDS011;10137;49.406;19.484;2023-07-24T06:42:56;8.40;;;4.43;;
19951;SDS011;10137;49.406;19.484;2023-07-24T06:45:25;6.47;;;4.18;;
19951;SDS011;10137;49.406;19.484;2023-07-24T06:47:54;8.95;;;4.35;;
19951;SDS011;10137;49.406;19.484;2023-07-24T06:50:22;7.60;;;3.90;;
19951;SDS011;10137;49.406;19.484;2023-07-24T06:52:50;5.72;;;4.10;;
19951;SDS011;10137;49.406;19.484;2023-07-24T06:55:20;8.23;;;4.45;;
19951;SDS011;10137;49.406;19.484;2023-07-24T06:57:52;7.93;;;4.15;;
19951;SDS011;10137;49.406;19.484;2023-07-24T07:00:19;9.45;;;3.95;;
19951;SDS011;10137;49.406;19.484;2023-07-24T07:02:46;7.82;;;4.05;;
19951;SDS011;10137;49.406;19.484;2023-07-24T07:05:13;8.68;;;3.95;;
19951;SDS011;10137;49.406;19.484;2023-07-24T07:07:40;8.50;;;4.03;;
19951;SDS011;10137;49.406;19.484;2023-07-24T07:10:07;11.23;;;4.22;;
19951;SDS011;10137;49.406;19.484;2023-07-24T07:12:34;15.43;;;4.07;;
19951;SDS011;10137;49.406;19.484;2023-07-24T07:15:03;7.82;;;3.92;;
19951;SDS011;10137;49.406;19.484;2023-07-24T07:17:30;8.98;;;4.13;;
19951;SDS011;10137;49.406;19.484;2023-07-24T07:19:58;5.72;;;3.58;;
19951;SDS011;10137;49.406;19.484;2023-07-24T07:22:25;6.47;;;3.88;;
19951;SDS011;10137;49.406;19.484;2023-07-24T07:24:54;8.30;;;3.85;;
19951;SDS011;10137;49.406;19.484;2023-07-24T07:27:24;6.47;;;3.47;;
19951;SDS011;10137;49.406;19.484;2023-07-24T07:29:51;12.73;;;4.45;;
19951;SDS011;10137;49.406;19.484;2023-07-24T07:32:22;5.90;;;3.80;;
19951;SDS011;10137;49.406;19.484;2023-07-24T07:34:49;6.53;;;3.72;;
19951;SDS011;10137;49.406;19.484;2023-07-24T07:37:16;8.50;;;4.10;;
19951;SDS011;10137;49.406;19.484;2023-07-24T07:39:43;7.93;;;4.00;;
19951;SDS011;10137;49.406;19.484;2023-07-24T07:42:11;6.43;;;3.67;;
19951;SDS011;10137;49.406;19.484;2023-07-24T07:44:45;14.00;;;3.63;;
19951;SDS011;10137;49.406;19.484;2023-07-24T07:47:13;6.45;;;3.78;;
19951;SDS011;10137;49.406;19.484;2023-07-24T07:49:47;5.25;;;3.22;;
19951;SDS011;10137;49.406;19.484;2023-07-24T07:52:20;6.70;;;3.28;;
19951;SDS011;10137;49.406;19.484;2023-07-24T07:54:47;5.57;;;3.05;;
19951;SDS011;10137;49.406;19.484;2023-07-24T07:57:15;4.75;;;3.55;;
19951;SDS011;10137;49.406;19.484;2023-07-24T07:59:42;6.25;;;4.30;;
19951;SDS011;10137;49.406;19.484;2023-07-24T08:02:09;6.30;;;3.17;;
19951;SDS011;10137;49.406;19.484;2023-07-24T08:04:36;7.77;;;4.63;;
19951;SDS011;10137;49.406;19.484;2023-07-24T08:07:04;6.03;;;4.22;;
19951;SDS011;10137;49.406;19.484;2023-07-24T08:09:31;17.73;;;7.20;;
19951;SDS011;10137;49.406;19.484;2023-07-24T08:11:58;10.48;;;5.47;;
19951;SDS011;10137;49.406;19.484;2023-07-24T08:14:26;9.15;;;5.03;;
19951;SDS011;10137;49.406;19.484;2023-07-24T08:16:52;9.02;;;4.53;;
19951;SDS011;10137;49.406;19.484;2023-07-24T08:19:19;9.82;;;4.40;;
19951;SDS011;10137;49.406;19.484;2023-07-24T08:21:50;6.05;;;3.97;;
19951;SDS011;10137;49.406;19.484;2023-07-24T08:24:25;5.97;;;4.20;;
19951;SDS011;10137;49.406;19.484;2023-07-24T08:27:00;8.07;;;4.70;;
19951;SDS011;10137;49.406;19.484;2023-07-24T08:29:27;9.38;;;4.68;;
19951;SDS011;10137;49.406;19.484;2023-07-24T08:31:54;7.13;;;4.72;;
19951;SDS011;10137;49.406;19.484;2023-07-24T08:34:21;5.90;;;4.07;;
19951;SDS011;10137;49.406;19.484;2023-07-24T08:36:49;8.35;;;4.03;;
19951;SDS011;10137;49.406;19.484;2023-07-24T08:39:16;8.18;;;4.22;;
19951;SDS011;10137;49.406;19.484;2023-07-24T08:41:44;8.50;;;4.38;;
19951;SDS011;10137;49.406;19.484;2023-07-24T08:44:12;7.28;;;4.07;;
19951;SDS011;10137;49.406;19.484;2023-07-24T08:46:41;6.35;;;4.28;;
19951;SDS011;10137;49.406;19.484;2023-07-24T08:49:11;7.22;;;4.70;;
19951;SDS011;10137;49.406;19.484;2023-07-24T08:51:40;13.27;;;4.68;;
19951;SDS011;10137;49.406;19.484;2023-07-24T08:54:09;10.38;;;4.53;;
19951;SDS011;10137;49.406;19.484;2023-07-24T08:56:40;11.98;;;4.57;;
19951;SDS011;10137;49.406;19.484;2023-07-24T08:59:15;8.65;;;4.80;;
19951;SDS011;10137;49.406;19.484;2023-07-24T09:01:43;6.90;;;4.50;;
19951;SDS011;10137;49.406;19.484;2023-07-24T09:04:16;10.68;;;5.40;;
19951;SDS011;10137;49.406;19.484;2023-07-24T09:06:44;9.43;;;4.97;;
19951;SDS011;10137;49.406;19.484;2023-07-24T09:09:12;10.80;;;4.80;;
19951;SDS011;10137;49.406;19.484;2023-07-24T09:11:46;13.05;;;5.80;;
19951;SDS011;10137;49.406;19.484;2023-07-24T09:14:23;9.75;;;5.00;;
19951;SDS011;10137;49.406;19.484;2023-07-24T09:17:01;18.52;;;5.10;;
19951;SDS011;10137;49.406;19.484;2023-07-24T09:19:28;9.30;;;4.93;;
19951;SDS011;10137;49.406;19.484;2023-07-24T09:21:55;14.07;;;4.82;;
19951;SDS011;10137;49.406;19.484;2023-07-24T09:24:33;7.70;;;4.80;;
19951;SDS011;10137;49.406;19.484;2023-07-24T09:27:04;7.97;;;5.05;;
19951;SDS011;10137;49.406;19.484;2023-07-24T09:29:41;8.95;;;5.25;;
19951;SDS011;10137;49.406;19.484;2023-07-24T09:32:18;9.07;;;5.72;;
19951;SDS011;10137;49.406;19.484;2023-07-24T09:34:50;9.57;;;5.22;;
19951;SDS011;10137;49.406;19.484;2023-07-24T09:37:30;8.10;;;5.63;;
19951;SDS011;10137;49.406;19.484;2023-07-24T09:40:08;12.60;;;8.77;;
19951;SDS011;10137;49.406;19.484;2023-07-24T09:42:38;13.80;;;8.63;;
19951;SDS011;10137;49.406;19.484;2023-07-24T09:45:15;9.05;;;6.10;;
19951;SDS011;10137;49.406;19.484;2023-07-24T09:47:45;15.35;;;8.38;;
19951;SDS011;10137;49.406;19.484;2023-07-24T09:50:15;9.35;;;5.70;;
19951;SDS011;10137;49.406;19.484;2023-07-24T09:52:46;9.18;;;5.57;;
19951;SDS011;10137;49.406;19.484;2023-07-24T09:55:18;8.20;;;5.10;;
19951;SDS011;10137;49.406;19.484;2023-07-24T09:57:51;13.77;;;9.32;;
19951;SDS011;10137;49.406;19.484;2023-07-24T10:00:26;11.70;;;6.35;;
19951;SDS011;10137;49.406;19.484;2023-07-24T10:02:58;9.65;;;6.22;;
19951;SDS011;10137;49.406;19.484;2023-07-24T10:05:27;12.68;;;5.63;;
19951;SDS011;10137;49.406;19.484;2023-07-24T10:07:58;13.75;;;7.95;;
19951;SDS011;10137;49.406;19.484;2023-07-24T10:10:29;15.32;;;5.85;;
19951;SDS011;10137;49.406;19.484;2023-07-24T10:12:58;11.25;;;5.80;;
19951;SDS011;10137;49.406;19.484;2023-07-24T10:15:31;11.63;;;6.20;;
19951;SDS011;10137;49.406;19.484;2023-07-24T10:18:04;9.50;;;6.57;;
19951;SDS011;10137;49.406;19.484;2023-07-24T10:20:38;10.77;;;5.90;;
19951;SDS011;10137;49.406;19.484;2023-07-24T10:23:09;15.15;;;5.93;;
19951;SDS011;10137;49.406;19.484;2023-07-24T10:25:39;11.82;;;5.53;;
19951;SDS011;10137;49.406;19.484;2023-07-24T10:28:09;15.25;;;7.22;;
19951;SDS011;10137;49.406;19.484;2023-07-24T10:30:44;10.23;;;5.65;;
19951;SDS011;10137;49.406;19.484;2023-07-24T10:33:20;9.35;;;5.35;;
19951;SDS011;10137;49.406;19.484;2023-07-24T10:35:49;10.80;;;6.07;;
19951;SDS011;10137;49.406;19.484;2023-07-24T10:38:20;10.73;;;5.85;;
19951;SDS011;10137;49.406;19.484;2023-07-24T10:41:03;8.50;;;5.60;;
19951;SDS011;10137;49.406;19.484;2023-07-24T10:43:39;8.32;;;5.28;;
19951;SDS011;10137;49.406;19.484;2023-07-24T10:46:10;8.38;;;4.90;;
19951;SDS011;10137;49.406;19.484;2023-07-24T10:48:43;12.23;;;5.82;;
19951;SDS011;10137;49.406;19.484;2023-07-24T10:51:13;10.13;;;5.25;;
19951;SDS011;10137;49.406;19.484;2023-07-24T10:53:42;8.95;;;5.30;;
19951;SDS011;10137;49.406;19.484;2023-07-24T10:56:12;9.52;;;5.35;;
19951;SDS011;10137;49.406;19.484;2023-07-24T10:58:40;10.70;;;5.65;;
19951;SDS011;10137;49.406;19.484;2023-07-24T11:01:10;10.98;;;4.78;;
19951;SDS011;10137;49.406;19.484;2023-07-24T11:03:41;13.52;;;5.15;;
19951;SDS011;10137;49.406;19.484;2023-07-24T11:06:11;9.63;;;5.20;;
19951;SDS011;10137;49.406;19.484;2023-07-24T11:08:41;21.27;;;6.15;;
19951;SDS011;10137;49.406;19.484;2023-07-24T11:11:10;9.13;;;5.43;;
19951;SDS011;10137;49.406;19.484;2023-07-24T11:13:38;8.55;;;5.30;;
19951;SDS011;10137;49.406;19.484;2023-07-24T11:16:07;10.77;;;5.80;;
19951;SDS011;10137;49.406;19.484;2023-07-24T11:18:48;9.30;;;5.40;;
19951;SDS011;10137;49.406;19.484;2023-07-24T11:21:17;8.68;;;5.50;;
19951;SDS011;10137;49.406;19.484;2023-07-24T11:23:44;10.70;;;5.57;;
19951;SDS011;10137;49.406;19.484;2023-07-24T11:26:13;12.77;;;5.78;;
19951;SDS011;10137;49.406;19.484;2023-07-24T11:28:40;11.57;;;5.88;;
19951;SDS011;10137;49.406;19.484;2023-07-24T11:31:08;10.23;;;5.32;;
19951;SDS011;10137;49.406;19.484;2023-07-24T11:33:36;9.35;;;5.78;;
19951;SDS011;10137;49.406;19.484;2023-07-24T11:36:05;7.55;;;4.82;;
19951;SDS011;10137;49.406;19.484;2023-07-24T11:38:33;10.07;;;5.35;;
19951;SDS011;10137;49.406;19.484;2023-07-24T11:41:00;9.77;;;5.70;;
19951;SDS011;10137;49.406;19.484;2023-07-24T11:43:27;26.63;;;6.80;;
19951;SDS011;10137;49.406;19.484;2023-07-24T11:45:55;9.93;;;5.22;;
19951;SDS011;10137;49.406;19.484;2023-07-24T11:48:23;9.65;;;5.35;;
19951;SDS011;10137;49.406;19.484;2023-07-24T11:50:52;11.48;;;5.50;;
19951;SDS011;10137;49.406;19.484;2023-07-24T11:53:23;12.30;;;6.07;;
19951;SDS011;10137;49.406;19.484;2023-07-24T11:55:51;12.57;;;6.18;;
19951;SDS011;10137;49.406;19.484;2023-07-24T11:58:19;13.27;;;6.15;;
19951;SDS011;10137;49.406;19.484;2023-07-24T12:00:47;11.88;;;6.28;;
19951;SDS011;10137;49.406;19.484;2023-07-24T12:03:18;10.30;;;5.47;;
19951;SDS011;10137;49.406;19.484;2023-07-24T12:05:47;12.38;;;5.60;;
19951;SDS011;10137;49.406;19.484;2023-07-24T12:08:15;9.77;;;5.80;;
19951;SDS011;10137;49.406;19.484;2023-07-24T12:10:44;9.35;;;6.05;;
19951;SDS011;10137;49.406;19.484;2023-07-24T12:13:11;9.70;;;6.00;;
19951;SDS011;10137;49.406;19.484;2023-07-24T12:15:38;9.75;;;5.90;;
19951;SDS011;10137;49.406;19.484;2023-07-24T12:18:05;9.30;;;5.85;;
19951;SDS011;10137;49.406;19.484;2023-07-24T12:20:33;10.07;;;5.90;;
19951;SDS011;10137;49.406;19.484;2023-07-24T12:23:00;10.63;;;5.78;;
19951;SDS011;10137;49.406;19.484;2023-07-24T12:25:27;13.23;;;5.32;;
19951;SDS011;10137;49.406;19.484;2023-07-24T12:27:56;10.57;;;6.03;;
19951;SDS011;10137;49.406;19.484;2023-07-24T12:30:23;10.20;;;5.18;;
19951;SDS011;10137;49.406;19.484;2023-07-24T12:32:50;9.48;;;5.82;;
19951;SDS011;10137;49.406;19.484;2023-07-24T12:35:17;13.10;;;6.20;;
19951;SDS011;10137;49.406;19.484;2023-07-24T12:37:44;11.05;;;6.22;;
19951;SDS011;10137;49.406;19.484;2023-07-24T12:40:12;13.48;;;6.28;;
19951;SDS011;10137;49.406;19.484;2023-07-24T12:42:39;9.93;;;5.50;;
19951;SDS011;10137;49.406;19.484;2023-07-24T12:45:08;8.68;;;5.30;;
19951;SDS011;10137;49.406;19.484;2023-07-24T12:47:35;11.45;;;5.47;;
19951;SDS011;10137;49.406;19.484;2023-07-24T12:50:02;8.82;;;5.75;;
19951;SDS011;10137;49.406;19.484;2023-07-24T12:52:29;8.57;;;5.05;;
19951;SDS011;10137;49.406;19.484;2023-07-24T12:54:56;10.85;;;5.45;;
19951;SDS011;10137;49.406;19.484;2023-07-24T12:57:23;10.25;;;5.63;;
19951;SDS011;10137;49.406;19.484;2023-07-24T12:59:51;10.07;;;5.90;;
19951;SDS011;10137;49.406;19.484;2023-07-24T13:02:21;10.55;;;6.07;;
19951;SDS011;10137;49.406;19.484;2023-07-24T13:04:48;11.75;;;6.22;;
19951;SDS011;10137;49.406;19.484;2023-07-24T13:07:15;13.00;;;5.85;;
19951;SDS011;10137;49.406;19.484;2023-07-24T13:09:42;10.98;;;5.72;;
19951;SDS011;10137;49.406;19.484;2023-07-24T13:12:10;10.63;;;5.63;;
19951;SDS011;10137;49.406;19.484;2023-07-24T13:14:38;11.48;;;5.85;;
19951;SDS011;10137;49.406;19.484;2023-07-24T13:17:05;8.38;;;5.50;;
19951;SDS011;10137;49.406;19.484;2023-07-24T13:19:35;9.70;;;5.53;;
19951;SDS011;10137;49.406;19.484;2023-07-24T13:22:03;8.57;;;5.75;;
19951;SDS011;10137;49.406;19.484;2023-07-24T13:24:33;9.57;;;5.63;;
19951;SDS011;10137;49.406;19.484;2023-07-24T13:27:00;9.77;;;5.47;;
19951;SDS011;10137;49.406;19.484;2023-07-24T13:29:29;10.88;;;5.95;;
19951;SDS011;10137;49.406;19.484;2023-07-24T13:31:56;12.77;;;6.82;;
19951;SDS011;10137;49.406;19.484;2023-07-24T13:34:23;8.23;;;5.30;;
19951;SDS011;10137;49.406;19.484;2023-07-24T13:36:52;8.07;;;5.70;;
19951;SDS011;10137;49.406;19.484;2023-07-24T13:39:19;12.45;;;5.75;;
19951;SDS011;10137;49.406;19.484;2023-07-24T13:41:48;9.60;;;5.93;;
19951;SDS011;10137;49.406;19.484;2023-07-24T13:44:15;9.57;;;5.82;;
19951;SDS011;10137;49.406;19.484;2023-07-24T13:46:42;10.82;;;5.85;;
19951;SDS011;10137;49.406;19.484;2023-07-24T13:49:09;11.73;;;6.30;;
19951;SDS011;10137;49.406;19.484;2023-07-24T13:51:36;7.63;;;5.45;;
19951;SDS011;10137;49.406;19.484;2023-07-24T13:54:06;9.13;;;5.82;;
19951;SDS011;10137;49.406;19.484;2023-07-24T13:56:34;9.32;;;5.88;;
19951;SDS011;10137;49.406;19.484;2023-07-24T13:59:03;8.95;;;5.45;;
19951;SDS011;10137;49.406;19.484;2023-07-24T14:01:31;10.32;;;6.03;;
19951;SDS011;10137;49.406;19.484;2023-07-24T14:04:00;14.15;;;6.40;;
19951;SDS011;10137;49.406;19.484;2023-07-24T14:06:28;9.63;;;5.97;;
19951;SDS011;10137;49.406;19.484;2023-07-24T14:08:55;13.45;;;6.05;;
19951;SDS011;10137;49.406;19.484;2023-07-24T14:11:24;8.68;;;5.90;;
19951;SDS011;10137;49.406;19.484;2023-07-24T14:13:52;11.10;;;6.18;;
19951;SDS011;10137;49.406;19.484;2023-07-24T14:16:19;9.75;;;6.43;;
19951;SDS011;10137;49.406;19.484;2023-07-24T14:18:46;9.48;;;6.05;;
19951;SDS011;10137;49.406;19.484;2023-07-24T14:21:13;12.27;;;6.65;;
19951;SDS011;10137;49.406;19.484;2023-07-24T14:23:41;8.73;;;5.40;;
19951;SDS011;10137;49.406;19.484;2023-07-24T14:26:09;12.65;;;6.85;;
19951;SDS011;10137;49.406;19.484;2023-07-24T14:28:42;9.98;;;6.13;;
19951;SDS011;10137;49.406;19.484;2023-07-24T14:31:10;12.70;;;6.18;;
19951;SDS011;10137;49.406;19.484;2023-07-24T14:33:40;13.57;;;6.75;;
19951;SDS011;10137;49.406;19.484;2023-07-24T14:36:08;10.40;;;6.50;;
19951;SDS011;10137;49.406;19.484;2023-07-24T14:38:36;14.10;;;6.53;;
19951;SDS011;10137;49.406;19.484;2023-07-24T14:41:07;11.95;;;6.43;;
19951;SDS011;10137;49.406;19.484;2023-07-24T14:43:34;11.32;;;6.97;;